sensor_id;sensor_type;location;lat;lon;timestamp;temperature;humidity
58153;DHT22;43967;51.634;5.566;2024-01-15T00:03:40;17.40;49.90
58153;DHT22;43967;51.634;5.566;2024-01-15T00:09:01;17.40;49.90
58153;DHT22;43967;51.634;5.566;2024-01-15T00:14:23;17.40;49.80
58153;DHT22;43967;51.634;5.566;2024-01-15T00:19:44;17.40;49.80
58153;DHT22;43967;51.634;5.566;2024-01-15T00:25:05;17.40;49.80
58153;DHT22;43967;51.634;5.566;2024-01-15T00:30:27;17.40;49.80
58153;DHT22;43967;51.634;5.566;2024-01-15T00:35:48;17.40;49.80
58153;DHT22;43967;51.634;5.566;2024-01-15T00:41:09;17.40;49.80
58153;DHT22;43967;51.634;5.566;2024-01-15T00:46:30;17.40;49.70
58153;DHT22;43967;51.634;5.566;2024-01-15T00:51:52;17.40;49.70
58153;DHT22;43967;51.634;5.566;2024-01-15T00:57:13;17.40;49.70
58153;DHT22;43967;51.634;5.566;2024-01-15T01:02:35;17.40;49.70
58153;DHT22;43967;51.634;5.566;2024-01-15T01:07:56;17.40;49.60
58153;DHT22;43967;51.634;5.566;2024-01-15T01:13:18;17.40;49.60
58153;DHT22;43967;51.634;5.566;2024-01-15T01:18:39;17.40;49.60
58153;DHT22;43967;51.634;5.566;2024-01-15T01:24:00;17.30;49.50
58153;DHT22;43967;51.634;5.566;2024-01-15T01:29:22;17.30;49.50
58153;DHT22;43967;51.634;5.566;2024-01-15T01:34:43;17.30;49.40
58153;DHT22;43967;51.634;5.566;2024-01-15T01:40:05;17.30;49.40
58153;DHT22;43967;51.634;5.566;2024-01-15T01:45:26;17.30;49.40
58153;DHT22;43967;51.634;5.566;2024-01-15T01:50:48;17.30;49.40
58153;DHT22;43967;51.634;5.566;2024-01-15T01:56:09;17.30;49.30
58153;DHT22;43967;51.634;5.566;2024-01-15T02:01:31;17.30;49.30
58153;DHT22;43967;51.634;5.566;2024-01-15T02:06:52;17.30;50.00
58153;DHT22;43967;51.634;5.566;2024-01-15T02:12:14;17.30;49.40
58153;DHT22;43967;51.634;5.566;2024-01-15T02:17:35;17.30;49.30
58153;DHT22;43967;51.634;5.566;2024-01-15T02:23:16;17.30;49.20
58153;DHT22;43967;51.634;5.566;2024-01-15T02:28:38;17.30;49.30
58153;DHT22;43967;51.634;5.566;2024-01-15T02:33:59;17.30;49.20
58153;DHT22;43967;51.634;5.566;2024-01-15T02:39:20;17.30;49.20
58153;DHT22;43967;51.634;5.566;2024-01-15T02:44:41;17.30;49.20
58153;DHT22;43967;51.634;5.566;2024-01-15T02:50:03;17.30;49.10
58153;DHT22;43967;51.634;5.566;2024-01-15T02:55:24;17.30;49.10
58153;DHT22;43967;51.634;5.566;2024-01-15T03:00:45;17.20;49.00
58153;DHT22;43967;51.634;5.566;2024-01-15T03:06:07;17.20;49.00
58153;DHT22;43967;51.634;5.566;2024-01-15T03:11:28;17.20;49.00
58153;DHT22;43967;51.634;5.566;2024-01-15T03:16:49;17.20;48.90
58153;DHT22;43967;51.634;5.566;2024-01-15T03:22:11;17.20;49.00
58153;DHT22;43967;51.634;5.566;2024-01-15T03:27:32;17.20;48.90
58153;DHT22;43967;51.634;5.566;2024-01-15T03:32:53;17.20;48.90
58153;DHT22;43967;51.634;5.566;2024-01-15T03:38:14;17.20;48.90
58153;DHT22;43967;51.634;5.566;2024-01-15T03:43:36;17.20;48.90
58153;DHT22;43967;51.634;5.566;2024-01-15T03:48:57;17.20;48.90
58153;DHT22;43967;51.634;5.566;2024-01-15T03:54:18;17.20;48.90
58153;DHT22;43967;51.634;5.566;2024-01-15T03:59:40;17.20;48.90
58153;DHT22;43967;51.634;5.566;2024-01-15T04:05:04;17.20;48.80
58153;DHT22;43967;51.634;5.566;2024-01-15T04:10:25;17.20;48.90
58153;DHT22;43967;51.634;5.566;2024-01-15T04:15:47;17.20;48.80
58153;DHT22;43967;51.634;5.566;2024-01-15T04:21:08;17.10;48.80
58153;DHT22;43967;51.634;5.566;2024-01-15T04:26:29;17.10;48.80
58153;DHT22;43967;51.634;5.566;2024-01-15T04:31:52;17.10;48.80
58153;DHT22;43967;51.634;5.566;2024-01-15T04:37:14;17.10;48.70
58153;DHT22;43967;51.634;5.566;2024-01-15T04:42:35;17.10;48.70
58153;DHT22;43967;51.634;5.566;2024-01-15T04:47:56;17.10;48.70
58153;DHT22;43967;51.634;5.566;2024-01-15T04:53:17;17.10;48.80
58153;DHT22;43967;51.634;5.566;2024-01-15T04:58:39;17.10;48.70
58153;DHT22;43967;51.634;5.566;2024-01-15T05:04:00;17.10;48.70
58153;DHT22;43967;51.634;5.566;2024-01-15T05:09:21;17.10;48.70
58153;DHT22;43967;51.634;5.566;2024-01-15T05:14:42;17.10;48.70
58153;DHT22;43967;51.634;5.566;2024-01-15T05:20:04;17.10;48.70
58153;DHT22;43967;51.634;5.566;2024-01-15T05:25:26;17.10;48.70
58153;DHT22;43967;51.634;5.566;2024-01-15T05:30:47;17.10;48.70
58153;DHT22;43967;51.634;5.566;2024-01-15T05:36:08;17.10;48.70
58153;DHT22;43967;51.634;5.566;2024-01-15T05:41:29;17.10;48.70
58153;DHT22;43967;51.634;5.566;2024-01-15T05:46:51;17.00;48.70
58153;DHT22;43967;51.634;5.566;2024-01-15T05:52:12;17.00;48.70
58153;DHT22;43967;51.634;5.566;2024-01-15T05:57:33;17.00;48.80
58153;DHT22;43967;51.634;5.566;2024-01-15T06:02:54;17.00;48.70
58153;DHT22;43967;51.634;5.566;2024-01-15T06:08:16;17.00;48.80
58153;DHT22;43967;51.634;5.566;2024-01-15T06:13:37;17.00;48.80
58153;DHT22;43967;51.634;5.566;2024-01-15T06:18:58;17.00;48.80
58153;DHT22;43967;51.634;5.566;2024-01-15T06:24:19;17.00;48.90
58153;DHT22;43967;51.634;5.566;2024-01-15T06:29:45;17.00;48.80
58153;DHT22;43967;51.634;5.566;2024-01-15T06:35:07;17.00;48.80
58153;DHT22;43967;51.634;5.566;2024-01-15T06:40:28;17.00;48.90
58153;DHT22;43967;51.634;5.566;2024-01-15T06:45:49;17.00;48.80
58153;DHT22;43967;51.634;5.566;2024-01-15T06:51:11;17.10;48.90
58153;DHT22;43967;51.634;5.566;2024-01-15T06:56:32;17.00;48.90
58153;DHT22;43967;51.634;5.566;2024-01-15T07:01:53;17.00;48.90
58153;DHT22;43967;51.634;5.566;2024-01-15T07:07:15;17.00;48.90
58153;DHT22;43967;51.634;5.566;2024-01-15T07:12:36;17.00;48.90
58153;DHT22;43967;51.634;5.566;2024-01-15T07:17:57;17.00;49.00
58153;DHT22;43967;51.634;5.566;2024-01-15T07:23:18;17.00;48.90
58153;DHT22;43967;51.634;5.566;2024-01-15T07:28:40;17.00;48.90
58153;DHT22;43967;51.634;5.566;2024-01-15T07:34:01;17.00;48.90
58153;DHT22;43967;51.634;5.566;2024-01-15T07:39:22;17.00;49.00
58153;DHT22;43967;51.634;5.566;2024-01-15T07:44:43;17.00;48.90
58153;DHT22;43967;51.634;5.566;2024-01-15T07:50:05;17.00;48.90
58153;DHT22;43967;51.634;5.566;2024-01-15T07:55:26;17.00;48.90
58153;DHT22;43967;51.634;5.566;2024-01-15T08:00:47;17.10;48.80
58153;DHT22;43967;51.634;5.566;2024-01-15T08:06:09;17.10;49.40
58153;DHT22;43967;51.634;5.566;2024-01-15T08:11:30;17.10;49.80
58153;DHT22;43967;51.634;5.566;2024-01-15T08:16:51;17.00;50.00
58153;DHT22;43967;51.634;5.566;2024-01-15T08:22:13;17.00;50.70
58153;DHT22;43967;51.634;5.566;2024-01-15T08:27:34;17.00;50.90
58153;DHT22;43967;51.634;5.566;2024-01-15T08:32:56;17.10;50.70
58153;DHT22;43967;51.634;5.566;2024-01-15T08:38:18;17.10;50.70
58153;DHT22;43967;51.634;5.566;2024-01-15T08:43:39;17.10;51.30
58153;DHT22;43967;51.634;5.566;2024-01-15T08:49:00;17.20;51.40
58153;DHT22;43967;51.634;5.566;2024-01-15T08:54:22;17.20;50.90
58153;DHT22;43967;51.634;5.566;2024-01-15T08:59:43;17.30;51.50
58153;DHT22;43967;51.634;5.566;2024-01-15T09:05:04;17.30;51.40
58153;DHT22;43967;51.634;5.566;2024-01-15T09:10:26;17.40;51.30
58153;DHT22;43967;51.634;5.566;2024-01-15T09:15:48;17.40;51.30
58153;DHT22;43967;51.634;5.566;2024-01-15T09:21:09;17.40;51.60
58153;DHT22;43967;51.634;5.566;2024-01-15T09:26:30;17.50;51.70
58153;DHT22;43967;51.634;5.566;2024-01-15T09:31:52;17.50;51.40
58153;DHT22;43967;51.634;5.566;2024-01-15T09:37:16;17.40;51.70
58153;DHT22;43967;51.634;5.566;2024-01-15T09:42:37;17.40;51.60
58153;DHT22;43967;51.634;5.566;2024-01-15T09:47:58;17.50;51.60
58153;DHT22;43967;51.634;5.566;2024-01-15T09:53:20;17.60;51.30
58153;DHT22;43967;51.634;5.566;2024-01-15T09:58:42;17.60;51.10
58153;DHT22;43967;51.634;5.566;2024-01-15T10:04:03;17.60;51.30
58153;DHT22;43967;51.634;5.566;2024-01-15T10:09:24;17.70;51.10
58153;DHT22;43967;51.634;5.566;2024-01-15T10:14:46;17.70;51.20
58153;DHT22;43967;51.634;5.566;2024-01-15T10:20:10;17.80;51.50
58153;DHT22;43967;51.634;5.566;2024-01-15T10:25:32;17.80;51.80
58153;DHT22;43967;51.634;5.566;2024-01-15T10:30:57;17.80;56.60
58153;DHT22;43967;51.634;5.566;2024-01-15T10:36:19;17.80;56.20
58153;DHT22;43967;51.634;5.566;2024-01-15T10:41:40;17.80;56.10
58153;DHT22;43967;51.634;5.566;2024-01-15T10:47:02;17.80;55.70
58153;DHT22;43967;51.634;5.566;2024-01-15T10:52:23;17.80;55.40
58153;DHT22;43967;51.634;5.566;2024-01-15T10:57:45;17.80;55.30
58153;DHT22;43967;51.634;5.566;2024-01-15T11:03:08;17.80;55.00
58153;DHT22;43967;51.634;5.566;2024-01-15T11:08:30;17.80;54.30
58153;DHT22;43967;51.634;5.566;2024-01-15T11:13:51;17.90;54.80
58153;DHT22;43967;51.634;5.566;2024-01-15T11:19:12;17.90;53.70
58153;DHT22;43967;51.634;5.566;2024-01-15T11:24:38;17.90;54.30
58153;DHT22;43967;51.634;5.566;2024-01-15T11:30:04;18.00;54.30
58153;DHT22;43967;51.634;5.566;2024-01-15T11:35:48;18.00;54.20
58153;DHT22;43967;51.634;5.566;2024-01-15T11:41:15;18.10;53.80
58153;DHT22;43967;51.634;5.566;2024-01-15T11:47:03;18.10;53.60
58153;DHT22;43967;51.634;5.566;2024-01-15T11:52:25;18.00;53.40
58153;DHT22;43967;51.634;5.566;2024-01-15T11:57:50;18.10;53.20
58153;DHT22;43967;51.634;5.566;2024-01-15T12:03:11;18.10;53.00
58153;DHT22;43967;51.634;5.566;2024-01-15T12:08:33;18.20;52.80
58153;DHT22;43967;51.634;5.566;2024-01-15T12:13:54;18.20;52.60
58153;DHT22;43967;51.634;5.566;2024-01-15T12:19:17;18.20;51.90
58153;DHT22;43967;51.634;5.566;2024-01-15T12:29:59;18.20;51.80
58153;DHT22;43967;51.634;5.566;2024-01-15T12:35:21;18.30;52.50
58153;DHT22;43967;51.634;5.566;2024-01-15T12:40:43;18.30;52.40
58153;DHT22;43967;51.634;5.566;2024-01-15T12:46:05;18.30;52.40
58153;DHT22;43967;51.634;5.566;2024-01-15T12:51:26;18.40;52.40
58153;DHT22;43967;51.634;5.566;2024-01-15T12:56:48;18.40;52.70
58153;DHT22;43967;51.634;5.566;2024-01-15T13:02:09;18.40;51.90
58153;DHT22;43967;51.634;5.566;2024-01-15T13:07:30;18.40;51.70
58153;DHT22;43967;51.634;5.566;2024-01-15T13:12:52;18.40;51.70
58153;DHT22;43967;51.634;5.566;2024-01-15T13:18:13;18.50;51.70
58153;DHT22;43967;51.634;5.566;2024-01-15T13:23:34;18.40;51.70
58153;DHT22;43967;51.634;5.566;2024-01-15T13:28:55;18.40;51.60
58153;DHT22;43967;51.634;5.566;2024-01-15T13:34:17;18.50;50.80
58153;DHT22;43967;51.634;5.566;2024-01-15T13:39:38;18.50;50.70
58153;DHT22;43967;51.634;5.566;2024-01-15T13:44:59;18.50;50.60
58153;DHT22;43967;51.634;5.566;2024-01-15T13:50:20;18.50;50.60
58153;DHT22;43967;51.634;5.566;2024-01-15T13:55:42;18.50;50.60
58153;DHT22;43967;51.634;5.566;2024-01-15T14:01:03;18.50;50.50
58153;DHT22;43967;51.634;5.566;2024-01-15T14:06:24;18.60;50.40
58153;DHT22;43967;51.634;5.566;2024-01-15T14:11:46;18.60;50.60
58153;DHT22;43967;51.634;5.566;2024-01-15T14:17:07;18.60;50.40
58153;DHT22;43967;51.634;5.566;2024-01-15T14:22:28;18.70;50.40
58153;DHT22;43967;51.634;5.566;2024-01-15T14:27:50;18.70;50.20
58153;DHT22;43967;51.634;5.566;2024-01-15T14:33:11;18.70;50.00
58153;DHT22;43967;51.634;5.566;2024-01-15T14:38:32;18.70;49.90
58153;DHT22;43967;51.634;5.566;2024-01-15T14:43:54;18.70;49.70
58153;DHT22;43967;51.634;5.566;2024-01-15T14:49:15;18.70;49.70
58153;DHT22;43967;51.634;5.566;2024-01-15T14:54:36;18.70;49.60
58153;DHT22;43967;51.634;5.566;2024-01-15T14:59:57;18.60;49.40
58153;DHT22;43967;51.634;5.566;2024-01-15T15:05:19;18.60;50.10
58153;DHT22;43967;51.634;5.566;2024-01-15T15:10:40;18.60;49.30
58153;DHT22;43967;51.634;5.566;2024-01-15T15:16:01;18.60;49.20
58153;DHT22;43967;51.634;5.566;2024-01-15T15:21:22;18.60;49.10
58153;DHT22;43967;51.634;5.566;2024-01-15T15:26:44;18.60;49.00
58153;DHT22;43967;51.634;5.566;2024-01-15T15:32:05;18.60;48.90
58153;DHT22;43967;51.634;5.566;2024-01-15T15:37:26;18.60;48.80
58153;DHT22;43967;51.634;5.566;2024-01-15T15:42:47;18.60;48.70
58153;DHT22;43967;51.634;5.566;2024-01-15T15:48:09;18.60;48.60
58153;DHT22;43967;51.634;5.566;2024-01-15T15:53:30;18.60;48.60
58153;DHT22;43967;51.634;5.566;2024-01-15T15:58:51;18.60;48.50
58153;DHT22;43967;51.634;5.566;2024-01-15T16:04:13;18.60;48.40
58153;DHT22;43967;51.634;5.566;2024-01-15T16:09:34;18.60;47.70
58153;DHT22;43967;51.634;5.566;2024-01-15T16:14:55;18.70;48.30
58153;DHT22;43967;51.634;5.566;2024-01-15T16:20:17;18.70;48.60
58153;DHT22;43967;51.634;5.566;2024-01-15T16:25:38;18.70;48.50
58153;DHT22;43967;51.634;5.566;2024-01-15T16:31:00;18.70;49.50
58153;DHT22;43967;51.634;5.566;2024-01-15T16:36:21;18.80;49.70
58153;DHT22;43967;51.634;5.566;2024-01-15T16:41:42;18.80;49.70
58153;DHT22;43967;51.634;5.566;2024-01-15T16:47:04;18.70;51.40
58153;DHT22;43967;51.634;5.566;2024-01-15T16:52:25;18.70;54.30
58153;DHT22;43967;51.634;5.566;2024-01-15T16:57:46;18.70;54.70
58153;DHT22;43967;51.634;5.566;2024-01-15T17:03:07;18.70;55.20
58153;DHT22;43967;51.634;5.566;2024-01-15T17:08:29;18.70;54.10
58153;DHT22;43967;51.634;5.566;2024-01-15T17:13:50;18.60;52.10
58153;DHT22;43967;51.634;5.566;2024-01-15T17:19:12;18.70;52.70
58153;DHT22;43967;51.634;5.566;2024-01-15T17:24:33;18.60;52.00
58153;DHT22;43967;51.634;5.566;2024-01-15T17:29:54;18.60;51.50
58153;DHT22;43967;51.634;5.566;2024-01-15T17:35:16;18.60;51.70
58153;DHT22;43967;51.634;5.566;2024-01-15T17:40:37;18.60;52.10
58153;DHT22;43967;51.634;5.566;2024-01-15T17:45:58;18.60;52.00
58153;DHT22;43967;51.634;5.566;2024-01-15T17:51:21;18.70;51.80
58153;DHT22;43967;51.634;5.566;2024-01-15T17:56:42;18.70;51.70
58153;DHT22;43967;51.634;5.566;2024-01-15T18:02:03;18.70;51.80
58153;DHT22;43967;51.634;5.566;2024-01-15T18:07:25;18.70;52.00
58153;DHT22;43967;51.634;5.566;2024-01-15T18:12:47;18.70;52.20
58153;DHT22;43967;51.634;5.566;2024-01-15T18:18:08;18.70;51.60
58153;DHT22;43967;51.634;5.566;2024-01-15T18:23:30;18.60;51.70
58153;DHT22;43967;51.634;5.566;2024-01-15T18:28:51;18.60;52.30
58153;DHT22;43967;51.634;5.566;2024-01-15T18:34:12;18.60;52.20
58153;DHT22;43967;51.634;5.566;2024-01-15T18:39:34;18.60;51.40
58153;DHT22;43967;51.634;5.566;2024-01-15T18:44:55;18.70;51.80
58153;DHT22;43967;51.634;5.566;2024-01-15T18:50:16;18.70;51.40
58153;DHT22;43967;51.634;5.566;2024-01-15T18:55:38;18.70;51.10
58153;DHT22;43967;51.634;5.566;2024-01-15T19:00:59;18.70;51.00
58153;DHT22;43967;51.634;5.566;2024-01-15T19:06:20;18.70;50.80
58153;DHT22;43967;51.634;5.566;2024-01-15T19:11:42;18.70;50.60
58153;DHT22;43967;51.634;5.566;2024-01-15T19:17:03;18.70;50.40
58153;DHT22;43967;51.634;5.566;2024-01-15T19:22:24;18.70;50.20
58153;DHT22;43967;51.634;5.566;2024-01-15T19:27:46;18.70;50.80
58153;DHT22;43967;51.634;5.566;2024-01-15T19:33:07;18.70;50.10
58153;DHT22;43967;51.634;5.566;2024-01-15T19:38:28;18.70;50.20
58153;DHT22;43967;51.634;5.566;2024-01-15T19:43:49;18.70;50.30
58153;DHT22;43967;51.634;5.566;2024-01-15T19:49:11;18.70;50.20
58153;DHT22;43967;51.634;5.566;2024-01-15T19:54:32;18.70;50.40
58153;DHT22;43967;51.634;5.566;2024-01-15T19:59:53;18.60;50.80
58153;DHT22;43967;51.634;5.566;2024-01-15T20:05:15;18.70;51.00
58153;DHT22;43967;51.634;5.566;2024-01-15T20:10:37;18.70;51.40
58153;DHT22;43967;51.634;5.566;2024-01-15T20:15:58;18.70;51.60
58153;DHT22;43967;51.634;5.566;2024-01-15T20:21:19;18.70;51.90
58153;DHT22;43967;51.634;5.566;2024-01-15T20:26:41;18.70;52.00
58153;DHT22;43967;51.634;5.566;2024-01-15T20:32:02;18.70;52.00
58153;DHT22;43967;51.634;5.566;2024-01-15T20:37:23;18.70;52.10
58153;DHT22;43967;51.634;5.566;2024-01-15T20:42:44;18.80;52.30
58153;DHT22;43967;51.634;5.566;2024-01-15T20:48:06;18.70;52.40
58153;DHT22;43967;51.634;5.566;2024-01-15T20:53:27;18.70;52.50
58153;DHT22;43967;51.634;5.566;2024-01-15T20:58:48;18.70;52.50
58153;DHT22;43967;51.634;5.566;2024-01-15T21:04:10;18.70;52.50
58153;DHT22;43967;51.634;5.566;2024-01-15T21:09:31;18.70;52.70
58153;DHT22;43967;51.634;5.566;2024-01-15T21:14:54;18.70;52.50
58153;DHT22;43967;51.634;5.566;2024-01-15T21:20:15;18.70;52.00
58153;DHT22;43967;51.634;5.566;2024-01-15T21:25:36;18.70;51.90
58153;DHT22;43967;51.634;5.566;2024-01-15T21:30:58;18.60;51.50
58153;DHT22;43967;51.634;5.566;2024-01-15T21:36:19;18.60;51.30
58153;DHT22;43967;51.634;5.566;2024-01-15T21:41:43;18.60;51.00
58153;DHT22;43967;51.634;5.566;2024-01-15T21:47:05;18.60;50.90
58153;DHT22;43967;51.634;5.566;2024-01-15T21:52:26;18.60;50.70
58153;DHT22;43967;51.634;5.566;2024-01-15T21:57:47;18.50;50.50
58153;DHT22;43967;51.634;5.566;2024-01-15T22:03:09;18.50;50.40
58153;DHT22;43967;51.634;5.566;2024-01-15T22:08:30;18.50;50.30
58153;DHT22;43967;51.634;5.566;2024-01-15T22:13:51;18.40;50.10
58153;DHT22;43967;51.634;5.566;2024-01-15T22:19:12;18.40;50.10
58153;DHT22;43967;51.634;5.566;2024-01-15T22:24:37;18.40;50.00
58153;DHT22;43967;51.634;5.566;2024-01-15T22:29:58;18.40;49.90
58153;DHT22;43967;51.634;5.566;2024-01-15T22:35:19;18.40;49.80
58153;DHT22;43967;51.634;5.566;2024-01-15T22:40:41;18.40;49.70
58153;DHT22;43967;51.634;5.566;2024-01-15T22:46:02;18.30;49.70
58153;DHT22;43967;51.634;5.566;2024-01-15T22:51:23;18.30;49.60
58153;DHT22;43967;51.634;5.566;2024-01-15T22:56:44;18.30;49.50
58153;DHT22;43967;51.634;5.566;2024-01-15T23:02:06;18.30;49.40
58153;DHT22;43967;51.634;5.566;2024-01-15T23:07:27;18.30;49.30
58153;DHT22;43967;51.634;5.566;2024-01-15T23:12:49;18.30;49.30
58153;DHT22;43967;51.634;5.566;2024-01-15T23:18:10;18.20;49.20
58153;DHT22;43967;51.634;5.566;2024-01-15T23:23:31;18.20;49.10
58153;DHT22;43967;51.634;5.566;2024-01-15T23:28:52;18.20;49.10
58153;DHT22;43967;51.634;5.566;2024-01-15T23:34:14;18.20;49.10
58153;DHT22;43967;51.634;5.566;2024-01-15T23:39:35;18.20;49.00
58153;DHT22;43967;51.634;5.566;2024-01-15T23:44:56;18.20;49.00
58153;DHT22;43967;51.634;5.566;2024-01-15T23:50:17;18.10;48.80
58153;DHT22;43967;51.634;5.566;2024-01-15T23:55:39;18.10;48.90
